Time;durP1;ratioP1;P1;durP2;ratioP2;P2;SDS_P1;SDS_P2;PMS_P1;PMS_P2;Temp;Humidity;BMP_temperature;BMP_pressure;BME280_temperature;BME280_humidity;BME280_pressure;Samples;Min_cycle;Max_cycle;Signal;HPM_P1;HPM_P2
2023/09/16 00:02:00;;;;;;;11.00;9.70;;;;;;;20.48;100.00;100357.87;104348;1275;74533;-59
2023/09/16 00:04:27;;;;;;;10.80;9.80;;;;;;;20.46;100.00;100359.82;104278;1257;68629;-59
2023/09/16 00:06:56;;;;;;;10.20;9.20;;;;;;;20.52;100.00;100358.71;104383;1253;72847;-58
2023/09/16 00:09:27;;;;;;;11.90;9.70;;;;;;;20.52;100.00;100356.73;104256;1264;61973;-59
2023/09/16 00:11:54;;;;;;;10.90;8.90;;;;;;;20.51;100.00;100358.92;104270;1254;60559;-59
2023/09/16 00:14:22;;;;;;;10.70;9.60;;;;;;;20.50;100.00;100354.92;104435;1253;74729;-59
2023/09/16 00:16:50;;;;;;;10.00;9.10;;;;;;;20.49;100.00;100358.21;104322;1259;70199;-59
2023/09/16 00:19:17;;;;;;;12.40;8.70;;;;;;;20.51;100.00;100358.07;104304;1259;72263;-59
2023/09/16 00:21:45;;;;;;;9.80;8.90;;;;;;;20.52;100.00;100360.66;104276;1260;61904;-59
2023/09/16 00:24:14;;;;;;;9.90;8.00;;;;;;;20.50;100.00;100360.39;104314;1255;60540;-59
2023/09/16 00:26:41;;;;;;;10.10;9.00;;;;;;;20.47;100.00;100366.16;105222;1254;74764;-59
2023/09/16 00:29:08;;;;;;;9.00;8.10;;;;;;;20.47;100.00;100363.73;104358;1258;69215;-59
2023/09/16 00:31:36;;;;;;;10.30;8.80;;;;;;;20.42;100.00;100366.00;104267;1276;72473;-59
2023/09/16 00:34:03;;;;;;;9.00;8.20;;;;;;;20.40;100.00;100368.95;104482;1269;61584;-59
2023/09/16 00:36:32;;;;;;;9.50;8.00;;;;;;;20.40;100.00;100372.55;104279;1253;60559;-59
2023/09/16 00:39:00;;;;;;;8.90;8.10;;;;;;;20.40;100.00;100376.82;104306;1258;73734;-59
2023/09/16 00:41:27;;;;;;;9.20;8.50;;;;;;;20.39;100.00;100380.25;104242;1276;69918;-59
2023/09/16 00:43:53;;;;;;;9.50;8.60;;;;;;;20.40;100.00;100381.09;104150;1276;73115;-59
2023/09/16 00:46:20;;;;;;;9.30;8.40;;;;;;;20.40;100.00;100384.47;104255;1276;61447;-61
2023/09/16 00:48:47;;;;;;;10.10;9.10;;;;;;;20.40;100.00;100384.14;104228;1276;59825;-61
2023/09/16 00:51:15;;;;;;;8.80;8.00;;;;;;;20.38;100.00;100386.58;104261;1276;74266;-61
2023/09/16 00:53:42;;;;;;;10.00;8.30;;;;;;;20.29;100.00;100391.54;104381;1252;69831;-61
2023/09/16 00:56:10;;;;;;;9.40;8.30;;;;;;;20.29;100.00;100394.92;104287;1264;72943;-60
2023/09/16 00:58:37;;;;;;;9.00;8.30;;;;;;;20.29;100.00;100398.45;104126;1275;61514;-60
2023/09/16 01:01:04;;;;;;;10.20;9.00;;;;;;;20.30;100.00;100399.64;104212;1271;60543;-59
2023/09/16 01:03:31;;;;;;;11.20;9.10;;;;;;;20.27;100.00;100402.11;104269;1261;74168;-60
2023/09/16 01:05:59;;;;;;;;;;;;;;;20.22;100.00;100402.15;104350;1257;69400;-60
2023/09/16 01:08:26;;;;;;;10.20;8.60;;;;;;;20.16;100.00;100408.98;104213;1258;72293;-60
2023/09/16 01:10:52;;;;;;;9.20;8.40;;;;;;;20.14;100.00;100408.00;104254;1260;61851;-60
2023/09/16 01:13:20;;;;;;;10.70;8.60;;;;;;;20.15;100.00;100409.91;104407;1255;60924;-60
2023/09/16 01:15:59;;;;;;;9.60;8.70;;;;;;;20.14;100.00;100413.56;104151;1262;74132;-60
2023/09/16 01:18:34;;;;;;;10.00;9.10;;;;;;;20.16;100.00;100414.98;104278;1258;69240;-60
2023/09/16 01:21:06;;;;;;;11.20;10.10;;;;;;;20.19;100.00;100418.88;104296;1275;72988;-60
2023/09/16 01:23:36;;;;;;;10.10;9.20;;;;;;;20.19;100.00;100422.95;105540;1258;61574;-60
2023/09/16 01:26:03;;;;;;;10.30;9.20;;;;;;;20.21;100.00;100424.80;104339;1253;60412;-60
2023/09/16 01:28:31;;;;;;;11.90;9.80;;;;;;;20.22;100.00;100422.39;104253;1258;73799;-60
2023/09/16 01:30:57;;;;;;;10.70;9.70;;;;;;;20.19;100.00;100425.70;104384;1262;69375;-60
2023/09/16 01:33:34;;;;;;;12.00;10.80;;;;;;;20.16;100.00;100421.92;104288;1260;71293;-60
2023/09/16 01:36:03;;;;;;;13.20;11.90;;;;;;;20.16;100.00;100425.33;104251;1275;61773;-60
2023/09/16 01:38:32;;;;;;;12.00;10.60;;;;;;;20.18;100.00;100417.75;104282;1259;60859;-60
2023/09/16 01:40:59;;;;;;;12.90;11.50;;;;;;;20.20;100.00;100424.34;104273;1259;74614;-60
2023/09/16 01:43:26;;;;;;;14.70;12.80;;;;;;;20.21;100.00;100425.34;104218;1272;69328;-60
2023/09/16 01:45:53;;;;;;;15.60;12.60;;;;;;;20.20;100.00;100431.30;104174;1269;72955;-61
2023/09/16 01:48:21;;;;;;;14.40;12.50;;;;;;;20.19;100.00;100430.62;104232;1260;61695;-60
2023/09/16 01:51:04;;;;;;;14.70;13.20;;;;;;;20.22;100.00;100432.92;104396;1258;60452;-60
2023/09/16 01:53:33;;;;;;;17.50;13.00;;;;;;;20.24;100.00;100434.36;104299;1258;74265;-60
2023/09/16 01:56:00;;;;;;;17.00;13.80;;;;;;;20.24;100.00;100438.46;104376;1258;70318;-61
2023/09/16 01:58:27;;;;;;;16.70;13.20;;;;;;;20.28;100.00;100442.48;104269;1264;72912;-60
2023/09/16 02:00:54;;;;;;;15.40;13.30;;;;;;;20.20;100.00;100444.98;104275;1257;61538;-61
2023/09/16 02:03:21;;;;;;;18.20;13.70;;;;;;;20.18;100.00;100448.67;104340;1259;60451;-60
2023/09/16 02:05:48;;;;;;;18.90;14.50;;;;;;;20.20;100.00;100449.41;104280;1268;72373;-61
2023/09/16 02:08:16;;;;;;;19.30;14.70;;;;;;;20.14;100.00;100446.81;104238;1275;70185;-60
2023/09/16 02:10:43;;;;;;;20.70;15.90;;;;;;;20.12;100.00;100451.09;104412;1263;73052;-60
2023/09/16 02:13:10;;;;;;;20.30;15.40;;;;;;;20.10;100.00;100450.17;104242;1253;62438;-60
2023/09/16 02:15:42;;;;;;;17.00;14.80;;;;;;;20.14;100.00;100451.13;104329;1259;60458;-60
2023/09/16 02:18:09;;;;;;;21.00;15.50;;;;;;;20.22;100.00;100450.91;104308;1260;74005;-60
2023/09/16 02:20:36;;;;;;;18.40;15.20;;;;;;;20.24;100.00;100450.23;104402;1257;70293;-60
2023/09/16 02:23:04;;;;;;;21.00;15.30;;;;;;;20.26;100.00;100451.50;104335;1259;72229;-60
2023/09/16 02:25:35;;;;;;;20.80;16.10;;;;;;;20.24;100.00;100453.58;104261;1259;61563;-60
2023/09/16 02:28:04;;;;;;;18.80;15.20;;;;;;;20.22;100.00;100454.77;104867;1258;60524;-60
2023/09/16 02:30:30;;;;;;;20.90;15.10;;;;;;;20.22;100.00;100458.36;104493;1260;74068;-60
2023/09/16 02:33:03;;;;;;;21.40;15.90;;;;;;;20.20;100.00;100455.33;104330;1260;70336;-60
2023/09/16 02:35:32;;;;;;;20.00;15.90;;;;;;;20.18;100.00;100458.31;104247;1256;72916;-60
2023/09/16 02:38:02;;;;;;;19.20;15.40;;;;;;;20.15;100.00;100456.92;104265;1253;61638;-60
2023/09/16 02:40:29;;;;;;;19.70;15.50;;;;;;;20.11;100.00;100462.04;104280;1260;60556;-60
2023/09/16 02:42:57;;;;;;;18.20;14.80;;;;;;;20.11;100.00;100461.66;104253;1258;74178;-60
2023/09/16 02:45:24;;;;;;;20.30;15.80;;;;;;;20.13;100.00;100461.69;104314;1276;69138;-60
2023/09/16 02:47:51;;;;;;;20.30;16.00;;;;;;;20.15;100.00;100462.75;104317;1274;72611;-60
2023/09/16 02:50:18;;;;;;;20.40;15.70;;;;;;;20.17;100.00;100460.54;104282;1254;61645;-60
2023/09/16 02:52:45;;;;;;;21.50;16.20;;;;;;;20.16;100.00;100463.94;104246;1254;60580;-60
2023/09/16 02:55:11;;;;;;;20.90;15.50;;;;;;;20.19;100.00;100462.36;104288;1260;73441;-58
2023/09/16 02:57:38;;;;;;;22.30;16.40;;;;;;;20.16;100.00;100469.09;104310;1258;70196;-57
2023/09/16 03:00:07;;;;;;;20.80;16.80;;;;;;;20.13;100.00;100469.86;104247;1254;73494;-57
2023/09/16 03:02:34;;;;;;;19.60;15.50;;;;;;;20.12;100.00;100472.09;104237;1265;62101;-57
2023/09/16 03:05:02;;;;;;;19.90;15.10;;;;;;;20.10;100.00;100475.39;104293;1272;61156;-57
2023/09/16 03:07:29;;;;;;;19.40;15.50;;;;;;;20.07;100.00;100479.38;104305;1257;74291;-57
2023/09/16 03:09:58;;;;;;;22.90;16.60;;;;;;;20.03;100.00;100483.16;104259;1276;70104;-58
2023/09/16 03:12:25;;;;;;;18.60;15.00;;;;;;;20.01;100.00;100482.80;104241;1262;71667;-58
2023/09/16 03:14:53;;;;;;;;;;;;;;;20.04;100.00;100484.55;104243;1260;61761;-57
2023/09/16 03:17:20;;;;;;;16.70;15.00;;;;;;;20.00;100.00;100485.52;104323;1276;60569;-57
2023/09/16 03:19:47;;;;;;;18.50;14.50;;;;;;;20.02;100.00;100485.21;104420;1259;73750;-57
2023/09/16 03:22:14;;;;;;;17.10;15.10;;;;;;;20.16;100.00;100489.56;104317;1275;69691;-57
2023/09/16 03:24:42;;;;;;;18.00;15.80;;;;;;;20.14;100.00;100489.55;104306;1258;72667;-56
2023/09/16 03:27:09;;;;;;;17.20;15.20;;;;;;;20.11;100.00;100496.14;106154;1255;61934;-58
2023/09/16 03:29:36;;;;;;;17.70;14.80;;;;;;;20.11;100.00;100496.70;104353;1260;60515;-59
2023/09/16 03:32:04;;;;;;;18.80;15.60;;;;;;;20.09;100.00;100499.00;104312;1257;72577;-59
2023/09/16 03:34:30;;;;;;;16.70;14.80;;;;;;;20.09;100.00;100502.02;104256;1275;70374;-59
2023/09/16 03:36:59;;;;;;;19.40;14.90;;;;;;;20.10;100.00;100502.15;104269;1259;73107;-60
2023/09/16 03:39:26;;;;;;;21.50;15.20;;;;;;;20.12;100.00;100504.96;104354;1258;61519;-59
2023/09/16 03:41:54;;;;;;;17.70;15.10;;;;;;;20.17;100.00;100503.05;104328;1263;60584;-59
2023/09/16 03:44:22;;;;;;;17.00;14.70;;;;;;;20.17;100.00;100504.46;105286;1256;74395;-59
2023/09/16 03:46:48;;;;;;;17.50;15.30;;;;;;;20.14;100.00;100510.02;104252;1269;69931;-59
2023/09/16 03:49:15;;;;;;;16.40;14.70;;;;;;;20.11;100.00;100514.86;104336;1258;72411;-59
2023/09/16 03:51:50;;;;;;;18.50;14.90;;;;;;;20.09;100.00;100514.61;104287;1258;61619;-60
2023/09/16 03:54:17;;;;;;;17.30;15.20;;;;;;;20.09;100.00;100513.04;104338;1264;60544;-59
2023/09/16 03:56:44;;;;;;;23.50;15.60;;;;;;;20.09;100.00;100514.27;104319;1263;73484;-59
2023/09/16 03:59:13;;;;;;;16.80;14.20;;;;;;;20.11;100.00;100513.61;104330;1260;68619;-59
2023/09/16 04:01:42;;;;;;;20.50;15.20;;;;;;;20.13;100.00;100516.35;104256;1276;73121;-59
2023/09/16 04:04:11;;;;;;;18.70;14.60;;;;;;;20.14;100.00;100519.44;104251;1253;61642;-59
2023/09/16 04:09:30;;;;;;;15.70;14.20;;;;;;;19.57;100.00;100520.89;100965;1292;620103;-58
2023/09/16 04:11:58;;;;;;;17.10;15.40;;;;;;;19.98;100.00;100519.27;103780;1269;61711;-58
2023/09/16 04:14:24;;;;;;;20.50;14.50;;;;;;;19.95;100.00;100523.77;103755;1266;60129;-58
2023/09/16 04:16:53;;;;;;;17.70;14.60;;;;;;;19.96;100.00;100530.64;103814;1268;71763;-59
2023/09/16 04:19:20;;;;;;;17.20;14.20;;;;;;;19.99;100.00;100528.67;103881;1266;70421;-61
2023/09/16 04:21:51;;;;;;;18.00;14.90;;;;;;;20.00;100.00;100529.82;103157;1284;317758;-60
2023/09/16 04:24:19;;;;;;;16.30;14.20;;;;;;;20.08;100.00;100531.42;103858;1264;61498;-58
2023/09/16 04:26:48;;;;;;;16.50;14.00;;;;;;;20.13;100.00;100532.15;103915;1263;59926;-58
2023/09/16 04:29:14;;;;;;;18.00;15.10;;;;;;;20.16;100.00;100531.23;103970;1269;72862;-59
2023/09/16 04:31:45;;;;;;;15.50;13.80;;;;;;;20.19;100.00;100535.30;103878;1266;69785;-57
2023/09/16 04:34:14;;;;;;;16.10;14.50;;;;;;;20.19;100.00;100537.97;104029;1263;73260;-59
2023/09/16 04:36:43;;;;;;;16.70;13.30;;;;;;;20.20;100.00;100538.82;104026;1262;60981;-59
2023/09/16 04:39:11;;;;;;;15.90;14.20;;;;;;;20.20;100.00;100541.09;104208;1257;60365;-59
2023/09/16 04:41:37;;;;;;;17.80;15.10;;;;;;;20.29;100.00;100539.27;104268;1258;72482;-59
2023/09/16 04:44:08;;;;;;;16.00;14.40;;;;;;;20.35;100.00;100546.66;104225;1278;69305;-61
2023/09/16 04:46:35;;;;;;;15.70;14.10;;;;;;;20.38;100.00;100543.98;104158;1279;71249;-61
2023/09/16 04:49:05;;;;;;;15.60;14.00;;;;;;;20.32;100.00;100546.84;104236;1256;61710;-61
2023/09/16 04:51:33;;;;;;;16.30;14.70;;;;;;;20.28;100.00;100551.27;104352;1253;59766;-58
2023/09/16 04:54:01;;;;;;;15.40;14.00;;;;;;;20.30;100.00;100551.09;104233;1277;73421;-59
2023/09/16 04:56:28;;;;;;;15.70;14.20;;;;;;;20.34;100.00;100553.52;104331;1256;69348;-59
2023/09/16 04:58:58;;;;;;;16.10;14.50;;;;;;;20.35;100.00;100553.74;104220;1257;72219;-59
2023/09/16 05:01:26;;;;;;;17.40;15.30;;;;;;;20.35;100.00;100552.20;104100;1256;61584;-59
2023/09/16 05:03:52;;;;;;;15.30;13.60;;;;;;;20.33;100.00;100554.61;104436;1257;59857;-60
2023/09/16 05:06:22;;;;;;;15.70;14.30;;;;;;;20.35;100.00;100556.81;104315;1262;72004;-60
2023/09/16 05:08:50;;;;;;;15.90;14.40;;;;;;;20.40;100.00;100553.95;104222;1278;69878;-60
2023/09/16 05:11:18;;;;;;;16.10;14.40;;;;;;;20.40;100.00;100555.42;104151;1263;72969;-60
2023/09/16 05:13:51;;;;;;;14.60;13.20;;;;;;;20.52;100.00;100560.30;104352;1256;61543;-60
2023/09/16 05:16:18;;;;;;;15.90;14.40;;;;;;;20.57;100.00;100563.45;104204;1256;59998;-60
2023/09/16 05:18:45;;;;;;;15.30;13.80;;;;;;;20.63;100.00;100568.64;104422;1256;73579;-60
2023/09/16 05:21:13;;;;;;;14.80;13.40;;;;;;;20.62;100.00;100566.38;104591;1264;69272;-60
2023/09/16 05:23:40;;;;;;;15.50;13.90;;;;;;;20.56;100.00;100572.64;104282;1259;72296;-60
2023/09/16 05:26:09;;;;;;;15.80;14.10;;;;;;;20.52;100.00;100573.79;104290;1264;60508;-61
2023/09/16 05:28:41;;;;;;;15.00;13.70;;;;;;;20.50;100.00;100574.46;104425;1254;59926;-60
2023/09/16 05:31:08;;;;;;;18.10;14.10;;;;;;;20.51;100.00;100574.77;104312;1275;71874;-60
2023/09/16 05:33:36;;;;;;;14.50;13.00;;;;;;;20.55;100.00;100576.76;104237;1275;70479;-60
2023/09/16 05:36:04;;;;;;;14.80;13.40;;;;;;;20.57;100.00;100581.44;104311;1275;72775;-59
2023/09/16 05:38:33;;;;;;;15.10;13.60;;;;;;;20.64;100.00;100583.55;104237;1275;61721;-59
2023/09/16 05:41:00;;;;;;;15.10;13.70;;;;;;;20.66;100.00;100584.78;104489;1259;59830;-59
2023/09/16 05:43:28;;;;;;;15.00;13.50;;;;;;;20.69;100.00;100586.55;104405;1256;72952;-65
2023/09/16 05:46:01;;;;;;;16.10;14.00;;;;;;;20.73;100.00;100586.61;104386;1269;69644;-64
2023/09/16 05:48:28;;;;;;;15.40;13.90;;;;;;;20.79;100.00;100580.11;105618;1256;72404;-65
2023/09/16 05:50:56;;;;;;;15.00;13.00;;;;;;;20.85;100.00;100581.70;104289;1259;62504;-59
2023/09/16 05:53:25;;;;;;;14.50;13.10;;;;;;;20.93;100.00;100583.08;104270;1253;59836;-59
2023/09/16 05:55:56;;;;;;;14.40;13.10;;;;;;;20.97;100.00;100582.46;104257;1269;73341;-59
2023/09/16 05:58:23;;;;;;;15.20;13.80;;;;;;;21.00;100.00;100585.25;104288;1257;69784;-60
2023/09/16 06:00:55;;;;;;;14.60;13.20;;;;;;;21.02;100.00;100584.74;104373;1256;72352;-60
2023/09/16 06:03:22;;;;;;;14.70;13.30;;;;;;;21.05;100.00;100583.13;104252;1260;61695;-60
2023/09/16 06:05:58;;;;;;;15.80;14.20;;;;;;;21.08;100.00;100584.66;104245;1257;60131;-61
2023/09/16 06:08:25;;;;;;;15.10;13.70;;;;;;;21.09;100.00;100585.11;104271;1267;72864;-60
2023/09/16 06:10:52;;;;;;;15.30;13.90;;;;;;;21.18;100.00;100585.54;104250;1275;70008;-60
2023/09/16 06:13:19;;;;;;;15.20;13.80;;;;;;;21.25;100.00;100584.36;104279;1272;71486;-58
2023/09/16 06:15:46;;;;;;;15.00;13.70;;;;;;;21.26;100.00;100586.55;104274;1258;61533;-61
2023/09/16 06:18:13;;;;;;;15.20;13.70;;;;;;;21.26;100.00;100587.11;104242;1275;59972;-59
2023/09/16 06:20:42;;;;;;;15.00;13.20;;;;;;;21.25;100.00;100591.83;104335;1275;73262;-59
2023/09/16 06:23:09;;;;;;;15.70;14.00;;;;;;;21.24;100.00;100590.68;104219;1260;70168;-59
2023/09/16 06:25:37;;;;;;;14.80;13.40;;;;;;;21.28;100.00;100592.53;104246;1275;72943;-58
2023/09/16 06:28:07;;;;;;;14.80;13.50;;;;;;;21.31;100.00;100593.30;104721;1274;61947;-59
2023/09/16 06:30:35;;;;;;;14.80;12.70;;;;;;;21.35;100.00;100594.67;105517;1254;59859;-59
2023/09/16 06:33:02;;;;;;;16.00;14.30;;;;;;;21.38;100.00;100596.92;104285;1256;73803;-59
2023/09/16 06:35:29;;;;;;;14.20;12.90;;;;;;;21.39;100.00;100595.98;104310;1269;69397;-59
2023/09/16 06:37:56;;;;;;;14.70;13.30;;;;;;;21.41;100.00;100599.20;104247;1259;71459;-59
2023/09/16 06:40:23;;;;;;;15.10;12.90;;;;;;;21.46;100.00;100599.28;104318;1254;61504;-61
2023/09/16 06:42:50;;;;;;;14.70;13.40;;;;;;;21.54;100.00;100608.11;104242;1260;60023;-60
2023/09/16 06:45:19;;;;;;;14.20;12.80;;;;;;;21.59;100.00;100608.85;104328;1260;73408;-59
2023/09/16 06:47:48;;;;;;;15.10;13.50;;;;;;;21.62;100.00;100612.89;104277;1271;69954;-60
2023/09/16 06:50:15;;;;;;;12.50;11.30;;;;;;;21.65;100.00;100612.83;104525;1256;72744;-60
2023/09/16 06:52:42;;;;;;;13.90;12.50;;;;;;;21.69;100.00;100617.88;104394;1265;61446;-59
2023/09/16 06:55:09;;;;;;;13.00;11.60;;;;;;;21.72;100.00;100614.83;104322;1259;59918;-60
2023/09/16 06:57:36;;;;;;;12.90;11.70;;;;;;;21.73;100.00;100619.54;104313;1256;72725;-65
2023/09/16 07:00:21;;;;;;;12.30;11.00;;;;;;;21.71;100.00;100621.52;104268;1270;70372;-66
2023/09/16 07:02:52;;;;;;;12.20;11.00;;;;;;;21.76;100.00;100623.05;104273;1253;73058;-66
2023/09/16 07:05:19;;;;;;;12.10;11.00;;;;;;;21.78;100.00;100622.95;104303;1253;61702;-67
2023/09/16 07:07:46;;;;;;;11.90;10.90;;;;;;;21.92;100.00;100623.30;104253;1276;59820;-69
2023/09/16 07:10:13;;;;;;;12.70;11.70;;;;;;;21.93;100.00;100624.14;104239;1257;73540;-66
2023/09/16 07:12:40;;;;;;;12.40;10.90;;;;;;;21.86;100.00;100625.00;104275;1257;70030;-59
2023/09/16 07:15:09;;;;;;;12.00;10.70;;;;;;;21.83;100.00;100630.58;104318;1256;72747;-59
2023/09/16 07:17:36;;;;;;;12.80;11.30;;;;;;;21.87;100.00;100632.43;104320;1256;62518;-60
2023/09/16 07:20:04;;;;;;;12.10;10.90;;;;;;;21.89;100.00;100634.79;104279;1275;59772;-60
2023/09/16 07:22:31;;;;;;;12.80;11.60;;;;;;;21.94;100.00;100638.20;104269;1275;71814;-60
2023/09/16 07:24:58;;;;;;;12.60;11.40;;;;;;;21.96;100.00;100643.33;104235;1271;70890;-60
2023/09/16 07:27:26;;;;;;;13.30;11.90;;;;;;;21.99;100.00;100640.82;104449;1256;72191;-60
2023/09/16 07:29:53;;;;;;;12.10;10.90;;;;;;;22.01;100.00;100641.59;104393;1258;60528;-60
2023/09/16 07:32:20;;;;;;;12.00;10.80;;;;;;;22.05;100.00;100643.07;104283;1256;59759;-59
2023/09/16 07:34:47;;;;;;;11.60;10.60;;;;;;;22.05;100.00;100642.17;104284;1276;73729;-59
2023/09/16 07:37:14;;;;;;;10.90;9.90;;;;;;;22.04;100.00;100639.77;104371;1275;69490;-60
2023/09/16 07:39:41;;;;;;;12.40;10.30;;;;;;;22.08;100.00;100640.70;104277;1256;72442;-60
2023/09/16 07:42:09;;;;;;;10.70;9.80;;;;;;;22.08;100.00;100640.48;104424;1256;61592;-60
2023/09/16 07:44:38;;;;;;;11.00;10.00;;;;;;;22.05;100.00;100642.55;104274;1256;59997;-60
2023/09/16 07:47:05;;;;;;;11.00;10.00;;;;;;;22.04;100.00;100645.46;104304;1257;73788;-60
2023/09/16 07:49:32;;;;;;;11.70;10.70;;;;;;;22.08;100.00;100643.52;104322;1275;69704;-61
2023/09/16 07:51:59;;;;;;;13.20;10.60;;;;;;;22.16;100.00;100642.40;105713;1264;71257;-62
2023/09/16 07:54:26;;;;;;;11.70;10.60;;;;;;;22.19;100.00;100644.54;104219;1257;61457;-62
2023/09/16 07:56:53;;;;;;;10.40;9.50;;;;;;;22.19;100.00;100647.35;104381;1256;60883;-63
2023/09/16 07:59:21;;;;;;;10.60;9.70;;;;;;;22.23;100.00;100649.91;104285;1272;72638;-62
2023/09/16 08:01:47;;;;;;;;;;;;;;;22.26;100.00;100648.44;104320;1258;69371;-61
2023/09/16 08:04:18;;;;;;;10.50;9.60;;;;;;;22.24;100.00;100657.03;104423;1256;73364;-61
2023/09/16 08:06:46;;;;;;;10.30;8.40;;;;;;;22.19;100.00;100653.10;104408;1268;61917;-62
2023/09/16 08:09:13;;;;;;;9.60;8.60;;;;;;;22.22;100.00;100654.84;104351;1272;59887;-61
2023/09/16 08:11:42;;;;;;;9.60;8.00;;;;;;;22.26;100.00;100654.70;104283;1275;72624;-62
2023/09/16 08:14:10;;;;;;;8.50;7.80;;;;;;;22.33;100.00;100651.34;104326;1257;69447;-63
2023/09/16 08:16:37;;;;;;;9.30;8.50;;;;;;;22.41;100.00;100655.55;104293;1258;72557;-64
2023/09/16 08:19:04;;;;;;;9.30;8.60;;;;;;;22.45;100.00;100656.52;104935;1253;61759;-62
2023/09/16 08:21:34;;;;;;;9.50;8.40;;;;;;;22.45;100.00;100657.70;104568;1262;59358;-63
2023/09/16 08:24:03;;;;;;;8.90;8.00;;;;;;;22.46;100.00;100661.26;104473;1256;72440;-64
2023/09/16 08:26:32;;;;;;;8.70;7.90;;;;;;;22.39;100.00;100660.40;104509;1254;70214;-63
2023/09/16 08:29:01;;;;;;;8.60;7.80;;;;;;;22.37;100.00;100662.45;104487;1256;73487;-62
2023/09/16 08:31:28;;;;;;;9.30;8.50;;;;;;;22.39;100.00;100660.75;105939;1256;61947;-62
2023/09/16 08:33:59;;;;;;;10.10;9.20;;;;;;;22.40;100.00;100660.33;104345;1257;60467;-63
2023/09/16 08:36:28;;;;;;;9.50;8.60;;;;;;;22.46;100.00;100664.44;104236;1267;74554;-63
2023/09/16 08:38:55;;;;;;;9.30;8.50;;;;;;;22.53;100.00;100665.69;105026;1253;69654;-64
2023/09/16 08:41:29;;;;;;;8.70;8.00;;;;;;;22.53;100.00;100666.03;104294;1275;73153;-59
2023/09/16 08:44:00;;;;;;;8.60;7.80;;;;;;;22.58;100.00;100668.75;104179;1264;61595;-60
2023/09/16 08:46:58;;;;;;;8.60;7.70;;;;;;;22.61;100.00;100669.44;104289;1255;60472;-59
2023/09/16 08:49:55;;;;;;;8.30;7.40;;;;;;;22.63;100.00;100674.44;104424;1269;75239;-60
2023/09/16 08:52:23;;;;;;;7.80;7.20;;;;;;;22.63;100.00;100673.89;104665;1260;70081;-57
2023/09/16 08:54:50;;;;;;;8.70;7.60;;;;;;;22.63;100.00;100676.73;104678;1257;73457;-59
2023/09/16 08:57:17;;;;;;;9.00;8.20;;;;;;;22.64;100.00;100676.67;104423;1256;62052;-64
2023/09/16 08:59:44;;;;;;;9.00;8.20;;;;;;;22.66;100.00;100675.09;104576;1259;60798;-61
2023/09/16 09:02:10;;;;;;;9.60;8.80;;;;;;;22.69;100.00;100680.06;104542;1258;74072;-60
2023/09/16 09:04:38;;;;;;;9.70;8.70;;;;;;;22.74;100.00;100680.87;104437;1256;70295;-60
2023/09/16 09:07:06;;;;;;;9.20;8.40;;;;;;;22.81;100.00;100678.73;104306;1257;71737;-60
2023/09/16 09:09:32;;;;;;;11.30;9.40;;;;;;;22.82;100.00;100679.57;104429;1272;60968;-60
2023/09/16 09:11:59;;;;;;;9.20;8.40;;;;;;;22.85;100.00;100680.55;104209;1264;60446;-60
2023/09/16 09:14:27;;;;;;;23.30;9.90;;;;;;;22.88;100.00;100683.38;104331;1259;74399;-60
2023/09/16 09:16:54;;;;;;;15.90;12.00;;;;;;;22.90;100.00;100681.09;104699;1268;69195;-60
2023/09/16 09:19:21;;;;;;;11.30;9.50;;;;;;;22.93;100.00;100680.80;104410;1256;72984;-60
2023/09/16 09:21:50;;;;;;;12.20;11.00;;;;;;;22.92;100.00;100681.13;104198;1259;61486;-60
2023/09/16 09:24:17;;;;;;;11.10;9.50;;;;;;;22.90;100.00;100680.31;104294;1259;60461;-60
2023/09/16 09:26:44;;;;;;;21.40;18.40;;;;;;;22.89;100.00;100682.55;104422;1263;73993;-60
2023/09/16 09:29:12;;;;;;;16.40;11.10;;;;;;;22.93;100.00;100684.44;104220;1268;69790;-60
2023/09/16 09:31:39;;;;;;;11.50;10.00;;;;;;;22.95;100.00;100684.98;106409;1254;73056;-60
2023/09/16 09:34:17;;;;;;;12.80;11.50;;;;;;;22.98;100.00;100684.21;104613;1257;61598;-61
2023/09/16 09:36:46;;;;;;;113.80;102.80;;;;;;;23.01;100.00;100687.05;104285;1256;60568;-59
2023/09/16 09:39:13;;;;;;;24.90;22.20;;;;;;;23.00;100.00;100683.70;104336;1257;74543;-59
2023/09/16 09:41:49;;;;;;;13.00;11.70;;;;;;;22.91;100.00;100681.35;104382;1267;69770;-59
2023/09/16 09:44:16;;;;;;;20.10;18.30;;;;;;;22.88;100.00;100680.16;104175;1265;72430;-59
2023/09/16 09:46:43;;;;;;;11.60;10.50;;;;;;;22.88;100.00;100679.77;104254;1264;60989;-60
2023/09/16 09:49:13;;;;;;;26.50;23.90;;;;;;;22.90;100.00;100678.23;104271;1274;60532;-60
2023/09/16 09:51:42;;;;;;;17.90;16.00;;;;;;;22.93;100.00;100677.61;104534;1269;74466;-59
2023/09/16 09:54:10;;;;;;;11.50;10.30;;;;;;;23.05;100.00;100679.60;107076;1257;69251;-57
2023/09/16 09:56:37;;;;;;;11.10;9.40;;;;;;;23.13;100.00;100682.35;104346;1254;73214;-58
2023/09/16 09:59:04;;;;;;;10.20;9.30;;;;;;;23.14;100.00;100680.67;104549;1258;61616;-61
2023/09/16 10:01:35;;;;;;;10.10;9.20;;;;;;;23.11;100.00;100681.21;104308;1258;60463;-61
2023/09/16 10:04:02;;;;;;;9.90;8.90;;;;;;;23.16;100.00;100676.92;104990;1256;73373;-62
2023/09/16 10:06:29;;;;;;;9.30;8.40;;;;;;;23.21;100.00;100678.54;104539;1257;69755;-61
2023/09/16 10:08:56;;;;;;;9.40;8.60;;;;;;;23.27;100.00;100678.92;104448;1265;73348;-60
2023/09/16 10:11:28;;;;;;;10.90;9.80;;;;;;;23.29;100.00;100676.95;104177;1261;61715;-60
2023/09/16 10:13:57;;;;;;;10.30;9.20;;;;;;;23.29;100.00;100678.55;104408;1251;59969;-60
2023/09/16 10:16:24;;;;;;;11.70;10.60;;;;;;;23.30;100.00;100676.55;104502;1260;73262;-59
2023/09/16 10:18:51;;;;;;;11.00;9.90;;;;;;;23.30;100.00;100675.06;104633;1264;69820;-60
2023/09/16 10:21:19;;;;;;;9.10;8.20;;;;;;;23.30;100.00;100677.09;104593;1262;72232;-61
2023/09/16 10:23:46;;;;;;;8.80;8.00;;;;;;;23.34;100.00;100676.52;104835;1257;61468;-60
2023/09/16 10:26:13;;;;;;;15.30;13.60;;;;;;;23.35;100.00;100672.21;104381;1257;60504;-60
2023/09/16 10:28:43;;;;;;;12.20;10.80;;;;;;;23.37;100.00;100670.62;104474;1256;74278;-61
2023/09/16 10:31:11;;;;;;;181.30;140.00;;;;;;;23.30;100.00;100672.21;104754;1256;69942;-61
2023/09/16 10:33:39;;;;;;;116.60;86.10;;;;;;;23.33;100.00;100670.33;104487;1256;73033;-60
2023/09/16 10:36:08;;;;;;;40.10;29.00;;;;;;;23.39;100.00;100670.30;104456;1259;61424;-61
2023/09/16 10:38:35;;;;;;;20.90;17.70;;;;;;;23.45;100.00;100669.02;104267;1258;60574;-63
2023/09/16 10:41:04;;;;;;;17.90;16.00;;;;;;;23.53;100.00;100671.47;104394;1260;73746;-62
2023/09/16 10:43:33;;;;;;;11.30;10.20;;;;;;;23.62;100.00;100672.86;104454;1256;69465;-62
2023/09/16 10:45:59;;;;;;;10.60;9.30;;;;;;;23.65;100.00;100677.32;104657;1251;73112;-63
2023/09/16 10:48:27;;;;;;;13.20;9.20;;;;;;;23.59;100.00;100676.52;104392;1266;61507;-63
2023/09/16 10:50:57;;;;;;;10.20;8.80;;;;;;;23.55;100.00;100672.59;104488;1257;60617;-63
2023/09/16 10:53:27;;;;;;;10.70;9.60;;;;;;;23.55;100.00;100669.52;104343;1254;74380;-65
2023/09/16 10:56:03;;;;;;;12.70;9.20;;;;;;;23.57;100.00;100668.85;104328;1258;69499;-63
2023/09/16 10:58:47;;;;;;;9.30;8.40;;;;;;;23.61;100.00;100671.35;104759;1257;72317;-61
2023/09/16 11:01:19;;;;;;;9.10;8.10;;;;;;;23.71;100.00;100665.55;104224;1257;61708;-61
2023/09/16 11:03:51;;;;;;;9.90;8.90;;;;;;;23.75;100.00;100663.10;104394;1270;60036;-59
2023/09/16 11:06:18;;;;;;;8.70;7.90;;;;;;;23.76;100.00;100663.89;104474;1254;72534;-61
2023/09/16 11:08:45;;;;;;;9.50;8.50;;;;;;;23.72;100.00;100661.66;104440;1267;70171;-60